createdAt,value
2018-07-16T00:00:24.770Z,7.60
2018-07-16T00:02:53.435Z,7.50
2018-07-16T00:05:22.147Z,7.83
2018-07-16T00:07:51.038Z,8.23
2018-07-16T00:10:19.763Z,8.23
2018-07-16T00:12:48.508Z,8.93
2018-07-16T00:15:17.273Z,9.00
2018-07-16T00:17:45.958Z,8.40
2018-07-16T00:20:14.615Z,8.70
2018-07-16T00:22:43.350Z,8.50
2018-07-16T00:25:12.018Z,8.70
2018-07-16T00:27:40.701Z,8.40
2018-07-16T00:30:09.394Z,8.40
2018-07-16T00:32:38.112Z,8.00
2018-07-16T00:35:06.797Z,8.20
2018-07-16T00:37:35.651Z,8.10
2018-07-16T00:40:04.376Z,8.23
2018-07-16T00:42:33.213Z,7.93
2018-07-16T00:45:01.919Z,8.33
2018-07-16T00:47:30.603Z,9.00
2018-07-16T00:49:59.304Z,7.37
2018-07-16T00:52:27.970Z,8.90
2018-07-16T00:54:56.632Z,8.50
2018-07-16T00:57:25.362Z,9.00
2018-07-16T00:59:54.139Z,9.63
2018-07-16T01:02:22.751Z,8.57
2018-07-16T01:04:51.463Z,8.47
2018-07-16T01:07:20.144Z,8.70
2018-07-16T01:09:48.955Z,9.60
2018-07-16T01:12:17.639Z,9.33
2018-07-16T01:14:46.483Z,8.67
2018-07-16T01:17:15.132Z,9.40
2018-07-16T01:19:43.829Z,9.73
2018-07-16T01:22:12.455Z,7.97
2018-07-16T01:24:41.194Z,9.13
2018-07-16T01:27:09.918Z,10.13
2018-07-16T01:29:39.877Z,10.43
2018-07-16T01:32:09.130Z,9.73
2018-07-16T01:34:38.360Z,9.83
2018-07-16T01:37:07.081Z,10.57
2018-07-16T01:39:35.753Z,10.17
2018-07-16T01:42:04.473Z,9.87
2018-07-16T01:44:33.126Z,10.50
2018-07-16T01:47:01.791Z,11.50
2018-07-16T01:49:30.435Z,11.83
2018-07-16T01:51:59.484Z,12.43
2018-07-16T01:54:28.193Z,11.30
2018-07-16T01:56:56.945Z,10.70
2018-07-16T01:59:26.078Z,12.47
2018-07-16T02:01:54.766Z,12.43
2018-07-16T02:04:23.429Z,11.57
2018-07-16T02:06:52.310Z,12.30
2018-07-16T02:09:21.004Z,11.90
2018-07-16T02:11:50.276Z,13.87
2018-07-16T02:14:18.931Z,14.67
2018-07-16T02:16:47.749Z,12.73
2018-07-16T02:19:16.472Z,14.50
2018-07-16T02:21:45.155Z,15.20
2018-07-16T02:24:13.997Z,14.53
2018-07-16T02:26:42.680Z,14.53
2018-07-16T02:29:12.381Z,16.60
2018-07-16T02:31:41.050Z,16.93
2018-07-16T02:34:09.761Z,15.03
2018-07-16T02:36:38.469Z,16.67
2018-07-16T02:39:07.175Z,15.57
2018-07-16T02:41:35.906Z,14.63
2018-07-16T02:44:04.583Z,15.20
2018-07-16T02:46:33.774Z,16.43
2018-07-16T02:49:02.468Z,16.00
2018-07-16T02:51:31.104Z,15.97
2018-07-16T02:53:59.813Z,15.30
2018-07-16T02:56:28.555Z,13.50
2018-07-16T02:58:57.141Z,12.60
2018-07-16T03:01:25.882Z,13.17
2018-07-16T03:03:54.634Z,9.87
2018-07-16T03:06:23.598Z,10.30
2018-07-16T03:08:52.518Z,10.27
2018-07-16T03:11:21.176Z,10.70
2018-07-16T03:13:50.303Z,10.70
2018-07-16T03:16:19.018Z,9.03
2018-07-16T03:18:47.705Z,9.63
2018-07-16T03:21:16.391Z,10.30
2018-07-16T03:23:45.092Z,9.50
2018-07-16T03:26:13.812Z,11.00
2018-07-16T03:28:42.769Z,9.87
2018-07-16T03:31:11.979Z,9.10
2018-07-16T03:33:40.608Z,10.97
2018-07-16T03:36:09.290Z,9.90
2018-07-16T03:38:37.950Z,9.40
2018-07-16T03:41:06.668Z,8.63
2018-07-16T03:43:35.351Z,8.43
2018-07-16T03:46:04.089Z,9.43
2018-07-16T03:48:32.823Z,9.47
2018-07-16T03:51:01.510Z,9.63
2018-07-16T03:53:30.216Z,8.60
2018-07-16T03:55:58.884Z,8.40
2018-07-16T03:58:27.595Z,9.20
2018-07-16T04:00:56.275Z,9.20
2018-07-16T04:03:25.033Z,9.20
2018-07-16T04:05:53.801Z,10.03
2018-07-16T04:08:22.487Z,9.40
2018-07-16T04:10:51.240Z,9.70
2018-07-16T04:13:19.908Z,9.80
2018-07-16T04:15:48.628Z,10.63
2018-07-16T04:18:19.464Z,9.80
2018-07-16T04:20:48.662Z,9.63
2018-07-16T04:23:17.718Z,9.70
2018-07-16T04:25:46.411Z,9.57
2018-07-16T04:28:15.099Z,10.40
2018-07-16T04:30:43.842Z,10.73
2018-07-16T04:33:12.518Z,9.87
2018-07-16T04:35:41.237Z,10.33
2018-07-16T04:38:09.957Z,11.13
2018-07-16T04:40:38.662Z,11.53
2018-07-16T04:43:07.356Z,10.80
2018-07-16T04:45:36.057Z,11.07
2018-07-16T04:48:04.746Z,12.57
2018-07-16T04:50:33.445Z,14.00
2018-07-16T04:53:02.113Z,17.33
2018-07-16T04:55:31.423Z,18.47
2018-07-16T04:58:00.126Z,16.40
2018-07-16T05:00:28.945Z,18.90
2018-07-16T05:02:57.680Z,17.40
2018-07-16T05:05:26.426Z,18.03
2018-07-16T05:07:55.176Z,16.77
2018-07-16T05:10:23.945Z,16.73
2018-07-16T05:12:52.680Z,15.63
2018-07-16T05:15:21.398Z,15.53
2018-07-16T05:17:50.073Z,16.30
2018-07-16T05:20:18.898Z,17.70
2018-07-16T05:22:47.579Z,15.60
2018-07-16T05:25:16.264Z,16.70
2018-07-16T05:27:44.948Z,15.00
2018-07-16T05:30:13.666Z,15.77
2018-07-16T05:32:45.378Z,16.37
2018-07-16T05:35:13.998Z,15.57
2018-07-16T05:37:42.705Z,13.43
2018-07-16T05:40:11.444Z,13.93
2018-07-16T05:42:40.162Z,14.77
2018-07-16T05:45:08.862Z,15.03
2018-07-16T05:47:37.553Z,13.43
2018-07-16T05:50:06.300Z,12.20
2018-07-16T05:52:34.984Z,12.90
2018-07-16T05:55:03.792Z,14.23
2018-07-16T05:57:32.460Z,13.33
2018-07-16T06:00:01.289Z,12.67
2018-07-16T06:02:30.025Z,12.83
2018-07-16T06:04:58.708Z,13.37
2018-07-16T06:07:27.428Z,13.47
2018-07-16T06:09:56.145Z,12.33
2018-07-16T06:12:24.901Z,11.87
2018-07-16T06:14:53.694Z,13.03
2018-07-16T06:17:22.569Z,12.17
2018-07-16T06:19:51.256Z,11.20
2018-07-16T06:22:20.043Z,11.00
2018-07-16T06:24:48.719Z,12.57
2018-07-16T06:27:17.428Z,12.80
2018-07-16T06:29:46.268Z,12.37
2018-07-16T06:32:15.037Z,13.10
2018-07-16T06:34:43.796Z,12.57
2018-07-16T06:37:12.457Z,12.57
2018-07-16T06:39:41.159Z,13.20
2018-07-16T06:42:09.944Z,12.63
2018-07-16T06:44:38.816Z,11.90
2018-07-16T06:47:07.529Z,10.97
2018-07-16T06:49:36.666Z,11.30
2018-07-16T06:52:05.383Z,9.90
2018-07-16T06:54:34.172Z,10.43
2018-07-16T06:57:02.989Z,10.93
2018-07-16T06:59:31.749Z,10.27
2018-07-16T07:02:00.440Z,10.00
2018-07-16T07:04:30.064Z,10.53
2018-07-16T07:06:58.734Z,10.77
2018-07-16T07:09:27.421Z,9.87
2018-07-16T07:11:56.165Z,9.23
2018-07-16T07:14:25.120Z,9.40
2018-07-16T07:16:54.382Z,9.40
2018-07-16T07:19:23.170Z,9.43
2018-07-16T07:21:52.126Z,9.23
2018-07-16T07:24:20.947Z,9.10
2018-07-16T07:26:49.660Z,8.93
2018-07-16T07:29:18.447Z,9.70
2018-07-16T07:31:47.800Z,8.40
2018-07-16T07:34:16.534Z,9.53
2018-07-16T07:36:45.383Z,9.50
2018-07-16T07:39:14.096Z,8.83
2018-07-16T07:41:42.902Z,9.30
2018-07-16T07:44:11.613Z,8.47
2018-07-16T07:46:40.325Z,10.27
2018-07-16T07:49:09.116Z,9.30
2018-07-16T07:51:37.983Z,8.87
2018-07-16T07:54:07.144Z,9.20
2018-07-16T07:56:35.936Z,9.20
2018-07-16T07:59:04.877Z,9.50
2018-07-16T08:01:37.466Z,9.63
2018-07-16T08:04:06.271Z,9.77
2018-07-16T08:06:35.157Z,10.80
2018-07-16T08:09:06.885Z,10.23
2018-07-16T08:11:35.634Z,11.43
2018-07-16T08:14:04.364Z,10.70
2018-07-16T08:16:33.115Z,10.10
2018-07-16T08:19:01.790Z,10.30
2018-07-16T08:21:30.499Z,9.90
2018-07-16T08:23:59.694Z,11.47
2018-07-16T08:26:28.702Z,11.80
2018-07-16T08:28:57.600Z,10.27
2018-07-16T08:31:26.405Z,9.47
2018-07-16T08:33:55.133Z,10.80
2018-07-16T08:36:23.840Z,10.03
2018-07-16T08:38:52.612Z,9.23
2018-07-16T08:41:21.507Z,9.10
2018-07-16T08:43:50.230Z,8.97
2018-07-16T08:46:19.214Z,8.90
2018-07-16T08:48:47.870Z,9.00
2018-07-16T08:51:16.617Z,8.53
2018-07-16T08:53:45.401Z,10.00
2018-07-16T08:56:14.989Z,9.00
2018-07-16T08:58:43.788Z,10.10
2018-07-16T09:01:12.461Z,9.77
2018-07-16T09:03:41.256Z,8.20
2018-07-16T09:06:10.025Z,8.77
2018-07-16T09:08:38.693Z,8.70
2018-07-16T09:11:07.901Z,10.00
2018-07-16T09:13:37.164Z,8.57
2018-07-16T09:16:05.768Z,9.50
2018-07-16T09:18:34.468Z,8.43
2018-07-16T09:21:03.146Z,8.80
2018-07-16T09:23:31.868Z,7.40
2018-07-16T09:26:00.555Z,8.03
2018-07-16T09:28:29.244Z,8.80
2018-07-16T09:30:57.913Z,8.40
2018-07-16T09:33:26.617Z,8.83
2018-07-16T09:35:55.975Z,8.77
2018-07-16T09:38:24.712Z,8.00
2018-07-16T09:40:53.466Z,9.10
2018-07-16T09:43:22.206Z,8.70
2018-07-16T09:45:50.935Z,8.77
2018-07-16T09:48:19.685Z,8.67
2018-07-16T09:50:48.469Z,7.87
2018-07-16T09:53:17.255Z,7.80
2018-07-16T09:55:45.893Z,8.13
2018-07-16T09:58:14.584Z,7.93
2018-07-16T10:00:48.913Z,8.30
2018-07-16T10:03:17.657Z,8.83
2018-07-16T10:05:46.373Z,8.43
2018-07-16T10:08:15.148Z,7.90
2018-07-16T10:10:43.957Z,8.87
2018-07-16T10:13:12.685Z,8.17
2018-07-16T10:15:41.526Z,7.50
2018-07-16T10:18:10.253Z,8.13
2018-07-16T10:20:39.002Z,8.33
2018-07-16T10:23:07.684Z,8.43
2018-07-16T10:25:36.399Z,8.13
2018-07-16T10:28:05.158Z,8.27
2018-07-16T10:30:33.905Z,8.70
2018-07-16T10:33:02.625Z,8.27
2018-07-16T10:35:31.337Z,8.80
2018-07-16T10:38:00.157Z,8.67
2018-07-16T10:40:28.938Z,8.33
2018-07-16T10:42:57.670Z,7.83
2018-07-16T10:45:26.418Z,8.40
2018-07-16T10:47:55.112Z,9.70
2018-07-16T10:50:23.762Z,9.00
2018-07-16T10:52:52.487Z,9.00
2018-07-16T10:55:21.326Z,8.93
2018-07-16T10:57:49.944Z,8.90
2018-07-16T11:00:18.640Z,8.73
2018-07-16T11:02:47.406Z,10.37
2018-07-16T11:05:16.146Z,9.27
2018-07-16T11:07:44.966Z,9.43
2018-07-16T11:10:13.700Z,11.37
2018-07-16T11:12:42.415Z,10.87
2018-07-16T11:15:11.134Z,8.90
2018-07-16T11:17:40.898Z,10.53
2018-07-16T11:20:09.977Z,10.10
2018-07-16T11:22:39.466Z,9.00
2018-07-16T11:25:08.690Z,10.10
2018-07-16T11:27:37.970Z,9.93
2018-07-16T11:30:07.588Z,10.50
2018-07-16T11:32:37.285Z,9.97
2018-07-16T11:35:06.461Z,9.47
2018-07-16T11:37:35.249Z,11.03
2018-07-16T11:40:04.139Z,9.80
2018-07-16T11:42:33.299Z,9.90
2018-07-16T11:45:02.276Z,10.87
2018-07-16T11:47:31.014Z,10.10
2018-07-16T11:49:59.775Z,8.90
2018-07-16T11:52:28.878Z,9.70
2018-07-16T11:54:57.709Z,9.47
2018-07-16T11:57:26.523Z,10.13
2018-07-16T11:59:55.214Z,8.70
2018-07-16T12:02:23.992Z,9.20
2018-07-16T12:04:52.780Z,9.53
2018-07-16T12:07:21.485Z,9.13
2018-07-16T12:09:50.229Z,9.10
2018-07-16T12:12:19.042Z,8.60
2018-07-16T12:14:48.452Z,8.47
2018-07-16T12:17:17.157Z,8.77
2018-07-16T12:19:46.504Z,9.37
2018-07-16T12:22:15.350Z,8.97
2018-07-16T12:24:44.217Z,8.20
2018-07-16T12:27:13.033Z,8.60
2018-07-16T12:29:41.825Z,9.30
2018-07-16T12:32:10.689Z,8.63
2018-07-16T12:34:39.437Z,8.20
2018-07-16T12:37:08.184Z,8.60
2018-07-16T12:39:38.079Z,8.80
2018-07-16T12:42:06.785Z,7.70
2018-07-16T12:44:35.543Z,9.23
2018-07-16T12:47:04.465Z,8.30
2018-07-16T12:49:33.254Z,8.80
2018-07-16T12:52:02.105Z,8.03
2018-07-16T12:54:30.951Z,9.43
2018-07-16T12:56:59.712Z,9.50
2018-07-16T12:59:28.587Z,8.60
2018-07-16T13:01:57.282Z,8.67
2018-07-16T13:04:26.678Z,8.00
2018-07-16T13:06:55.442Z,8.40
2018-07-16T13:09:24.242Z,8.90
2018-07-16T13:11:53.080Z,8.43
2018-07-16T13:14:22.029Z,8.80
2018-07-16T13:16:50.981Z,9.50
2018-07-16T13:19:19.858Z,12.13
2018-07-16T13:21:48.717Z,19.70
2018-07-16T13:24:17.501Z,18.13
2018-07-16T13:26:46.249Z,16.13
2018-07-16T13:29:15.059Z,18.57
2018-07-16T13:31:43.952Z,21.20
2018-07-16T13:34:12.733Z,19.97
2018-07-16T13:36:42.553Z,25.43
2018-07-16T13:39:11.716Z,24.87
2018-07-16T13:41:40.590Z,24.57
2018-07-16T13:44:09.354Z,18.17
2018-07-16T13:46:38.396Z,19.90
2018-07-16T13:49:07.641Z,18.90
2018-07-16T13:51:36.660Z,14.30
2018-07-16T13:54:05.779Z,13.43
2018-07-16T13:56:34.627Z,10.90
2018-07-16T13:59:03.330Z,13.33
2018-07-16T14:01:32.394Z,10.57
2018-07-16T14:04:01.272Z,9.17
2018-07-16T14:06:30.048Z,10.80
2018-07-16T14:08:58.814Z,8.67
2018-07-16T14:11:27.576Z,9.67
2018-07-16T14:13:57.029Z,9.60
2018-07-16T14:16:25.871Z,10.37
2018-07-16T14:18:54.685Z,20.80
2018-07-16T14:21:23.555Z,26.20
2018-07-16T14:23:52.404Z,20.47
2018-07-16T14:26:21.156Z,13.93
2018-07-16T14:28:49.988Z,26.40
2018-07-16T14:31:18.829Z,19.97
2018-07-16T14:33:47.618Z,31.77
2018-07-16T14:36:16.386Z,19.10
2018-07-16T14:38:45.233Z,28.57
2018-07-16T14:41:14.012Z,16.40
2018-07-16T14:43:42.804Z,13.47
2018-07-16T14:46:11.589Z,9.33
2018-07-16T14:48:40.468Z,13.77
2018-07-16T14:51:09.247Z,12.40
2018-07-16T14:53:38.175Z,10.90
2018-07-16T14:56:06.874Z,11.17
2018-07-16T14:58:35.660Z,9.93
2018-07-16T15:01:04.379Z,12.40
2018-07-16T15:03:33.257Z,10.90
2018-07-16T15:06:01.998Z,11.13
2018-07-16T15:08:31.004Z,9.80
2018-07-16T15:10:59.752Z,9.33
2018-07-16T15:13:28.655Z,8.33
2018-07-16T15:15:58.254Z,9.17
2018-07-16T15:18:27.220Z,9.10
2018-07-16T15:20:56.546Z,15.60
2018-07-16T15:23:24.960Z,12.47
2018-07-16T15:25:53.817Z,8.73
2018-07-16T15:28:23.008Z,8.93
2018-07-16T15:30:51.788Z,9.33
2018-07-16T15:33:20.816Z,7.73
2018-07-16T15:35:49.682Z,9.33
2018-07-16T15:38:18.504Z,8.50
2018-07-16T15:40:47.790Z,8.90
2018-07-16T15:43:16.560Z,9.23
2018-07-16T15:45:45.576Z,8.23
2018-07-16T15:48:14.505Z,7.90
2018-07-16T15:50:44.294Z,8.37
2018-07-16T15:53:13.290Z,8.70
2018-07-16T15:55:42.175Z,9.13
2018-07-16T15:58:11.166Z,9.20
2018-07-16T16:00:39.928Z,9.37
2018-07-16T16:03:08.659Z,8.70
2018-07-16T16:05:37.475Z,8.33
2018-07-16T16:08:06.177Z,7.87
2018-07-16T16:10:34.880Z,9.30
2018-07-16T16:13:04.096Z,8.70
2018-07-16T16:15:32.854Z,9.63
2018-07-16T16:18:01.877Z,15.33
2018-07-16T16:20:31.001Z,10.23
2018-07-16T16:22:59.803Z,9.53
2018-07-16T16:25:28.468Z,8.57
2018-07-16T16:27:57.193Z,9.07
2018-07-16T16:30:25.903Z,9.53
2018-07-16T16:32:54.678Z,8.73
2018-07-16T16:35:23.385Z,8.37
2018-07-16T16:37:52.121Z,10.30
2018-07-16T16:40:20.805Z,8.70
2018-07-16T16:42:49.508Z,7.80
2018-07-16T16:45:18.224Z,7.60
2018-07-16T16:47:46.967Z,9.27
2018-07-16T16:50:15.927Z,8.20
2018-07-16T16:52:44.771Z,8.60
2018-07-16T16:55:14.165Z,8.60
2018-07-16T16:57:42.905Z,8.83
2018-07-16T17:00:11.736Z,7.80
2018-07-16T17:02:40.465Z,8.30
2018-07-16T17:05:09.311Z,7.83
2018-07-16T17:07:38.045Z,7.90
2018-07-16T17:10:06.765Z,8.37
2018-07-16T17:12:35.774Z,8.03
2018-07-16T17:15:05.033Z,8.83
2018-07-16T17:17:34.957Z,8.33
2018-07-16T17:20:03.810Z,8.80
2018-07-16T17:22:32.643Z,10.13
2018-07-16T17:25:01.880Z,9.67
2018-07-16T17:27:30.598Z,10.90
2018-07-16T17:29:59.515Z,10.47
2018-07-16T17:32:28.289Z,8.27
2018-07-16T17:34:56.994Z,9.13
2018-07-16T17:37:26.022Z,9.47
2018-07-16T17:39:54.717Z,8.47
2018-07-16T17:42:23.945Z,9.30
2018-07-16T17:44:52.640Z,8.37
2018-07-16T17:47:22.364Z,9.00
2018-07-16T17:49:51.088Z,8.63
2018-07-16T17:52:19.923Z,9.30
2018-07-16T17:54:48.570Z,8.97
2018-07-16T17:57:17.241Z,9.03
2018-07-16T17:59:45.988Z,9.03
2018-07-16T18:02:15.171Z,10.80
2018-07-16T18:04:44.007Z,12.47
2018-07-16T18:07:16.961Z,12.07
2018-07-16T18:09:46.198Z,9.50
2018-07-16T18:12:15.025Z,10.47
2018-07-16T18:14:43.813Z,9.90
2018-07-16T18:17:12.521Z,9.20
2018-07-16T18:19:41.459Z,9.13
2018-07-16T18:22:10.161Z,9.10
2018-07-16T18:24:38.946Z,10.17
2018-07-16T18:27:08.844Z,9.37
2018-07-16T18:29:37.547Z,10.30
2018-07-16T18:32:06.712Z,11.10
2018-07-16T18:34:35.455Z,20.53
2018-07-16T18:37:04.336Z,40.33
2018-07-16T18:39:33.077Z,23.33
2018-07-16T18:42:02.821Z,20.63
2018-07-16T18:44:31.548Z,11.23
2018-07-16T18:47:00.298Z,84.40
2018-07-16T18:49:29.057Z,31.60
2018-07-16T18:51:57.940Z,32.93
2018-07-16T18:54:26.764Z,20.03
2018-07-16T18:56:55.859Z,17.07
2018-07-16T18:59:24.635Z,23.73
2018-07-16T19:01:53.764Z,18.97
2018-07-16T19:04:22.447Z,16.73
2018-07-16T19:06:51.548Z,15.20
2018-07-16T19:09:20.214Z,16.17
2018-07-16T19:11:49.064Z,17.87
2018-07-16T19:14:17.949Z,15.57
2018-07-16T19:16:46.880Z,13.93
2018-07-16T19:19:15.706Z,11.97
2018-07-16T19:21:44.444Z,12.73
2018-07-16T19:24:13.285Z,13.27
2018-07-16T19:26:42.105Z,13.03
2018-07-16T19:29:11.710Z,13.23
2018-07-16T19:31:40.549Z,12.20
2018-07-16T19:34:09.497Z,13.50
2018-07-16T19:36:38.461Z,13.20
2018-07-16T19:39:08.771Z,12.53
2018-07-16T19:41:37.519Z,13.57
2018-07-16T19:44:06.267Z,31.60
2018-07-16T19:46:35.089Z,19.83
2018-07-16T19:49:03.881Z,23.83
2018-07-16T19:51:32.766Z,26.77
2018-07-16T19:54:02.012Z,32.03
2018-07-16T19:56:30.774Z,29.00
2018-07-16T19:58:59.811Z,52.10
2018-07-16T20:01:28.523Z,96.67
2018-07-16T20:03:57.396Z,71.67
2018-07-16T20:06:26.349Z,30.10
2018-07-16T20:08:55.101Z,32.23
2018-07-16T20:11:24.390Z,27.67
2018-07-16T20:13:53.277Z,27.83
2018-07-16T20:16:22.136Z,26.00
2018-07-16T20:18:51.035Z,19.40
2018-07-16T20:21:19.899Z,19.93
2018-07-16T20:23:48.762Z,17.70
2018-07-16T20:26:19.231Z,15.93
2018-07-16T20:28:47.956Z,15.83
2018-07-16T20:31:17.618Z,14.60
2018-07-16T20:33:46.440Z,15.27
2018-07-16T20:36:16.790Z,14.07
2018-07-16T20:38:45.684Z,14.13
2018-07-16T20:41:14.591Z,15.70
2018-07-16T20:43:43.260Z,15.30
2018-07-16T20:46:12.043Z,14.17
2018-07-16T20:48:41.136Z,16.10
2018-07-16T20:51:10.348Z,18.20
2018-07-16T20:53:39.131Z,106.40
2018-07-16T20:56:08.278Z,146.90
2018-07-16T20:58:37.198Z,104.47
2018-07-16T21:01:05.980Z,120.03
2018-07-16T21:03:34.726Z,141.27
2018-07-16T21:06:04.007Z,105.67
2018-07-16T21:08:33.301Z,91.37
2018-07-16T21:11:02.258Z,44.20
2018-07-16T21:13:31.724Z,33.40
2018-07-16T21:16:00.837Z,30.47
2018-07-16T21:18:30.399Z,20.10
2018-07-16T21:20:59.424Z,21.73
2018-07-16T21:23:28.441Z,23.13
2018-07-16T21:25:57.528Z,25.20
2018-07-16T21:28:26.700Z,32.73
2018-07-16T21:30:55.387Z,31.70
2018-07-16T21:33:24.700Z,24.07
2018-07-16T21:35:53.570Z,20.77
2018-07-16T21:38:22.292Z,22.00
2018-07-16T21:40:51.005Z,23.23
2018-07-16T21:43:20.414Z,24.43
2018-07-16T21:45:49.133Z,24.40
2018-07-16T21:48:18.202Z,24.60
2018-07-16T21:50:47.176Z,25.10
2018-07-16T21:53:16.093Z,26.43
2018-07-16T21:55:44.860Z,29.30
2018-07-16T21:58:13.583Z,27.90
2018-07-16T22:00:42.719Z,27.33
2018-07-16T22:03:12.295Z,28.80
2018-07-16T22:05:41.630Z,31.37
2018-07-16T22:08:10.493Z,31.60
2018-07-16T22:10:39.369Z,34.90
2018-07-16T22:13:08.383Z,58.47
2018-07-16T22:15:37.124Z,50.53
2018-07-16T22:18:06.015Z,61.90
2018-07-16T22:20:34.974Z,51.77
2018-07-16T22:23:03.835Z,47.47
2018-07-16T22:25:32.592Z,48.83
2018-07-16T22:28:01.412Z,50.00
2018-07-16T22:30:30.305Z,50.07
2018-07-16T22:32:59.058Z,49.20
2018-07-16T22:35:27.923Z,56.73
2018-07-16T22:37:56.695Z,54.53
2018-07-16T22:40:25.798Z,50.73
2018-07-16T22:42:55.070Z,50.50
2018-07-16T22:45:23.835Z,49.97
2018-07-16T22:47:52.600Z,49.07
2018-07-16T22:50:21.369Z,45.83
2018-07-16T22:52:50.145Z,48.30
2018-07-16T22:55:19.267Z,45.87
2018-07-16T22:57:48.289Z,42.83
2018-07-16T23:00:17.409Z,41.40
2018-07-16T23:02:46.296Z,40.67
2018-07-16T23:05:15.211Z,42.13
2018-07-16T23:07:43.960Z,43.60
2018-07-16T23:10:12.843Z,43.90
2018-07-16T23:12:41.657Z,43.07
2018-07-16T23:15:10.516Z,46.03
2018-07-16T23:17:39.194Z,42.53
2018-07-16T23:20:07.990Z,41.90
2018-07-16T23:22:50.811Z,43.30
2018-07-16T23:25:20.141Z,42.60
2018-07-16T23:27:49.344Z,40.43
2018-07-16T23:30:18.101Z,39.03
2018-07-16T23:32:46.969Z,40.07
2018-07-16T23:35:16.886Z,38.63
2018-07-16T23:37:45.653Z,38.47
2018-07-16T23:40:14.452Z,41.17
2018-07-16T23:42:43.162Z,41.23
2018-07-16T23:45:11.866Z,43.30
2018-07-16T23:47:40.601Z,39.77
2018-07-16T23:50:09.614Z,41.20
2018-07-16T23:52:38.390Z,41.97
2018-07-16T23:55:07.152Z,40.00
2018-07-16T23:57:35.922Z,39.37
